createdAt,value
2019-03-04T00:00:36.260Z,2.60
2019-03-04T00:03:05.212Z,2.90
2019-03-04T00:05:34.015Z,2.50
2019-03-04T00:08:02.895Z,2.67
2019-03-04T00:10:31.680Z,2.93
2019-03-04T00:13:00.435Z,2.50
2019-03-04T00:15:29.267Z,2.33
2019-03-04T00:17:58.061Z,2.30
2019-03-04T00:20:26.947Z,2.57
2019-03-04T00:22:55.779Z,2.77
2019-03-04T00:25:24.499Z,2.30
2019-03-04T00:27:53.299Z,2.40
2019-03-04T00:30:22.289Z,2.83
2019-03-04T00:32:51.153Z,2.87
2019-03-04T00:35:19.936Z,2.47
2019-03-04T00:37:48.655Z,2.67
2019-03-04T00:40:17.488Z,2.27
2019-03-04T00:42:46.359Z,2.77
2019-03-04T00:45:15.168Z,2.40
2019-03-04T00:47:43.914Z,2.60
2019-03-04T00:50:16.241Z,2.00
2019-03-04T00:52:45.001Z,2.13
2019-03-04T00:55:13.807Z,2.17
2019-03-04T00:57:42.532Z,2.43
2019-03-04T01:00:13.145Z,2.27
2019-03-04T01:02:41.945Z,1.80
2019-03-04T01:05:10.693Z,2.10
2019-03-04T01:07:39.787Z,2.10
2019-03-04T01:10:12.592Z,2.10
2019-03-04T01:12:41.395Z,2.20
2019-03-04T01:15:11.484Z,2.03
2019-03-04T01:17:40.204Z,1.90
2019-03-04T01:20:10.490Z,2.10
2019-03-04T01:22:39.289Z,1.73
2019-03-04T01:25:09.508Z,1.77
2019-03-04T01:27:38.303Z,1.77
2019-03-04T01:30:08.597Z,2.00
2019-03-04T01:32:37.499Z,1.90
2019-03-04T01:35:06.487Z,1.80
2019-03-04T01:37:35.230Z,1.90
2019-03-04T01:40:05.492Z,1.93
2019-03-04T01:42:34.241Z,2.10
2019-03-04T01:45:03.935Z,1.90
2019-03-04T01:47:32.963Z,1.60
2019-03-04T01:50:01.764Z,1.73
2019-03-04T01:52:32.107Z,1.60
2019-03-04T01:55:00.853Z,1.50
2019-03-04T01:57:29.865Z,1.57
2019-03-04T01:59:58.652Z,1.50
2019-03-04T02:02:27.417Z,1.73
2019-03-04T02:04:56.211Z,1.40
2019-03-04T02:07:24.942Z,1.40
2019-03-04T02:09:53.836Z,1.53
2019-03-04T02:12:22.678Z,1.80
2019-03-04T02:14:51.423Z,1.47
2019-03-04T02:17:20.172Z,1.27
2019-03-04T02:19:48.895Z,1.20
2019-03-04T02:22:17.621Z,1.30
2019-03-04T02:24:46.507Z,1.37
2019-03-04T02:27:15.240Z,1.50
2019-03-04T02:29:43.992Z,1.47
2019-03-04T02:32:12.748Z,1.47
2019-03-04T02:34:41.733Z,1.40
2019-03-04T02:37:10.524Z,1.00
2019-03-04T02:39:39.336Z,1.30
2019-03-04T02:42:08.134Z,0.90
2019-03-04T02:44:36.877Z,0.90
2019-03-04T02:47:05.606Z,1.00
2019-03-04T02:49:34.440Z,1.20
2019-03-04T02:52:03.302Z,1.50
2019-03-04T02:54:32.074Z,1.30
2019-03-04T02:57:00.802Z,1.60
2019-03-04T02:59:29.613Z,1.63
2019-03-04T03:01:58.345Z,1.70
2019-03-04T03:04:27.099Z,1.43
2019-03-04T03:06:55.894Z,1.10
2019-03-04T03:09:24.709Z,1.50
2019-03-04T03:11:53.428Z,1.40
2019-03-04T03:14:22.175Z,1.60
2019-03-04T03:16:51.084Z,1.90
2019-03-04T03:19:19.877Z,1.67
2019-03-04T03:21:48.614Z,1.80
2019-03-04T03:24:17.424Z,2.00
2019-03-04T03:26:46.223Z,2.07
2019-03-04T03:29:14.974Z,2.27
2019-03-04T03:31:43.736Z,2.13
2019-03-04T03:34:12.595Z,2.20
2019-03-04T03:36:41.344Z,2.17
2019-03-04T03:39:10.216Z,2.20
2019-03-04T03:41:38.974Z,2.40
2019-03-04T03:44:07.696Z,2.47
2019-03-04T03:46:36.444Z,2.20
2019-03-04T03:49:05.244Z,2.47
2019-03-04T03:51:33.997Z,1.90
2019-03-04T03:54:02.819Z,2.00
2019-03-04T03:56:31.644Z,1.70
2019-03-04T03:59:00.445Z,1.90
2019-03-04T04:01:29.361Z,1.90
2019-03-04T04:03:58.224Z,2.27
2019-03-04T04:06:26.989Z,1.73
2019-03-04T04:08:55.708Z,1.67
2019-03-04T04:11:24.536Z,1.60
2019-03-04T04:13:53.286Z,1.67
2019-03-04T04:16:22.320Z,1.40
2019-03-04T04:18:51.185Z,1.80
2019-03-04T04:21:19.937Z,1.70
2019-03-04T04:23:48.744Z,1.40
2019-03-04T04:26:17.539Z,1.13
2019-03-04T04:28:46.297Z,1.00
2019-03-04T04:31:15.103Z,1.17
2019-03-04T04:33:44.422Z,1.00
2019-03-04T04:36:13.171Z,0.90
2019-03-04T04:38:41.889Z,1.07
2019-03-04T04:41:11.012Z,1.00
2019-03-04T04:43:39.809Z,1.00
2019-03-04T04:46:08.531Z,1.20
2019-03-04T04:48:37.292Z,1.00
2019-03-04T04:51:06.021Z,1.13
2019-03-04T04:53:34.774Z,1.00
2019-03-04T04:56:03.565Z,0.93
2019-03-04T04:58:32.910Z,1.10
2019-03-04T05:01:01.703Z,0.80
2019-03-04T05:03:30.452Z,1.10
2019-03-04T05:05:59.252Z,0.97
2019-03-04T05:08:28.005Z,1.03
2019-03-04T05:10:56.731Z,0.80
2019-03-04T05:13:25.503Z,0.97
2019-03-04T05:15:54.257Z,0.90
2019-03-04T05:18:23.075Z,0.87
2019-03-04T05:20:51.798Z,1.03
2019-03-04T05:23:20.535Z,0.80
2019-03-04T05:25:49.274Z,1.20
2019-03-04T05:28:17.993Z,0.90
2019-03-04T05:30:46.745Z,1.20
2019-03-04T05:33:15.473Z,1.00
2019-03-04T05:35:44.255Z,1.10
2019-03-04T05:38:12.974Z,0.90
2019-03-04T05:40:41.751Z,1.50
2019-03-04T05:43:10.487Z,0.80
2019-03-04T05:45:39.307Z,1.10
2019-03-04T05:48:08.100Z,1.20
2019-03-04T05:50:36.875Z,1.30
2019-03-04T05:53:05.595Z,1.30
2019-03-04T05:55:34.420Z,1.20
2019-03-04T05:58:03.160Z,0.90
2019-03-04T06:00:31.902Z,1.47
2019-03-04T06:03:01.916Z,1.00
2019-03-04T06:05:30.763Z,0.80
2019-03-04T06:07:59.609Z,0.60
2019-03-04T06:10:28.441Z,0.70
2019-03-04T06:12:58.891Z,1.10
2019-03-04T06:15:28.240Z,1.17
2019-03-04T06:17:57.216Z,0.83
2019-03-04T06:20:26.044Z,1.00
2019-03-04T06:22:55.026Z,0.67
2019-03-04T06:25:24.881Z,1.00
2019-03-04T06:27:53.778Z,0.80
2019-03-04T06:30:24.190Z,0.90
2019-03-04T06:32:53.011Z,0.80
2019-03-04T06:35:21.953Z,0.63
2019-03-04T06:37:50.925Z,0.93
2019-03-04T06:40:20.282Z,0.70
2019-03-04T06:42:49.122Z,0.83
2019-03-04T06:45:18.946Z,1.00
2019-03-04T06:47:47.764Z,0.70
2019-03-04T06:50:33.331Z,0.90
2019-03-04T06:53:03.477Z,1.00
2019-03-04T06:55:50.355Z,1.03
2019-03-04T06:58:19.186Z,0.87
2019-03-04T07:00:49.383Z,1.30
2019-03-04T07:03:19.266Z,1.20
2019-03-04T07:05:49.030Z,0.90
2019-03-04T07:08:35.116Z,1.43
2019-03-04T07:11:03.954Z,1.33
2019-03-04T07:13:32.837Z,0.90
2019-03-04T07:16:01.869Z,1.00
2019-03-04T07:18:30.944Z,1.30
2019-03-04T07:20:59.667Z,1.57
2019-03-04T07:23:28.432Z,1.40
2019-03-04T07:25:57.164Z,1.03
2019-03-04T07:28:25.990Z,1.30
2019-03-04T07:30:54.707Z,0.90
2019-03-04T07:33:23.464Z,1.30
2019-03-04T07:35:52.192Z,1.23
2019-03-04T07:38:22.476Z,1.47
2019-03-04T07:40:51.253Z,1.63
2019-03-04T07:43:20.069Z,1.60
2019-03-04T07:45:48.808Z,1.40
2019-03-04T07:48:17.534Z,1.57
2019-03-04T07:50:46.389Z,1.20
2019-03-04T07:53:15.131Z,1.30
2019-03-04T07:55:43.956Z,1.10
2019-03-04T07:58:12.680Z,1.63
2019-03-04T08:00:41.737Z,1.20
2019-03-04T08:03:10.650Z,1.37
2019-03-04T08:05:39.478Z,1.10
2019-03-04T08:08:08.981Z,1.10
2019-03-04T08:10:57.345Z,1.37
2019-03-04T08:13:27.949Z,1.50
2019-03-04T08:15:56.852Z,1.60
2019-03-04T08:18:25.573Z,1.50
2019-03-04T08:20:54.326Z,1.17
2019-03-04T08:23:23.050Z,1.70
2019-03-04T08:25:51.791Z,1.37
2019-03-04T08:28:20.545Z,1.47
2019-03-04T08:30:49.302Z,1.40
2019-03-04T08:33:18.143Z,1.40
2019-03-04T08:35:46.896Z,1.60
2019-03-04T08:38:15.773Z,2.33
2019-03-04T08:40:44.496Z,1.47
2019-03-04T08:43:13.349Z,1.17
2019-03-04T08:45:42.159Z,1.63
2019-03-04T08:48:10.976Z,1.57
2019-03-04T08:50:39.789Z,1.50
2019-03-04T08:53:08.870Z,1.67
2019-03-04T08:55:39.734Z,1.90
2019-03-04T08:58:08.496Z,1.50
2019-03-04T09:00:37.296Z,1.75
2019-03-04T09:03:06.127Z,1.80
2019-03-04T09:05:34.861Z,1.70
2019-03-04T09:08:03.841Z,1.77
2019-03-04T09:10:33.651Z,1.65
2019-03-04T09:13:02.551Z,2.10
2019-03-04T09:15:31.445Z,1.87
2019-03-04T09:18:00.271Z,2.25
2019-03-04T09:20:29.065Z,1.70
2019-03-04T09:22:57.907Z,1.80
2019-03-04T09:25:30.877Z,1.75
2019-03-04T09:27:59.832Z,1.65
2019-03-04T09:30:28.622Z,1.70
2019-03-04T09:32:57.386Z,2.52
2019-03-04T09:35:26.222Z,1.70
2019-03-04T09:37:55.118Z,2.22
2019-03-04T09:40:28.392Z,2.00
2019-03-04T09:45:46.686Z,1.83
2019-03-04T09:48:15.433Z,2.47
2019-03-04T09:50:44.338Z,2.30
2019-03-04T09:53:13.299Z,2.37
2019-03-04T09:55:42.201Z,1.97
2019-03-04T09:58:11.013Z,2.60
2019-03-04T10:00:50.632Z,2.35
2019-03-04T10:03:39.303Z,1.50
2019-03-04T10:06:25.547Z,1.92
2019-03-04T10:08:55.875Z,1.87
2019-03-04T10:11:32.016Z,2.10
2019-03-04T10:14:19.141Z,2.30
2019-03-04T10:16:49.528Z,2.55
2019-03-04T10:19:28.760Z,2.30
2019-03-04T10:22:01.832Z,2.63
2019-03-04T10:27:30.532Z,2.70
2019-03-04T10:30:03.722Z,2.37
2019-03-04T10:32:39.899Z,2.50
2019-03-04T10:35:15.947Z,2.72
2019-03-04T10:38:03.059Z,2.97
2019-03-04T10:40:42.417Z,2.63
2019-03-04T10:43:21.598Z,2.57
2019-03-04T10:45:54.908Z,2.00
2019-03-04T10:48:23.807Z,2.20
2019-03-04T10:50:52.649Z,2.20
2019-03-04T10:53:21.592Z,1.40
2019-03-04T10:55:50.640Z,1.47
2019-03-04T10:58:20.367Z,1.20
2019-03-04T11:00:49.247Z,1.50
2019-03-04T11:03:18.171Z,1.50
2019-03-04T11:05:47.040Z,1.40
2019-03-04T11:08:15.877Z,1.10
2019-03-04T11:10:46.247Z,1.22
2019-03-04T11:13:15.153Z,1.35
2019-03-04T11:15:44.078Z,1.20
2019-03-04T11:18:13.045Z,0.97
2019-03-04T11:20:41.941Z,0.75
2019-03-04T11:23:11.132Z,0.95
2019-03-04T11:25:40.034Z,1.10
2019-03-04T11:28:08.926Z,1.00
2019-03-04T11:30:37.853Z,1.10
2019-03-04T11:33:06.730Z,1.30
2019-03-04T11:35:35.558Z,1.13
2019-03-04T11:38:05.031Z,1.00
2019-03-04T11:40:34.501Z,1.00
2019-03-04T11:43:03.388Z,0.80
2019-03-04T11:45:32.459Z,1.00
2019-03-04T11:48:01.346Z,0.90
2019-03-04T11:50:30.352Z,0.93
2019-03-04T11:52:59.397Z,1.10
2019-03-04T11:55:31.685Z,1.13
2019-03-04T11:58:00.554Z,1.00
2019-03-04T12:00:29.647Z,1.17
2019-03-04T12:02:58.585Z,1.20
2019-03-04T12:05:29.006Z,0.97
2019-03-04T12:07:57.953Z,1.20
2019-03-04T12:10:26.865Z,1.33
2019-03-04T12:12:55.754Z,1.37
2019-03-04T12:15:24.757Z,1.30
2019-03-04T12:17:53.685Z,1.43
2019-03-04T12:20:22.599Z,1.60
2019-03-04T12:22:51.850Z,1.00
2019-03-04T12:25:20.772Z,1.77
2019-03-04T12:27:50.679Z,1.70
2019-03-04T12:30:19.980Z,1.57
2019-03-04T12:32:48.767Z,1.70
2019-03-04T12:35:18.149Z,1.60
2019-03-04T12:37:47.043Z,1.90
2019-03-04T12:40:16.733Z,1.80
2019-03-04T12:42:45.632Z,2.30
2019-03-04T12:45:15.013Z,2.23
2019-03-04T12:47:43.915Z,2.80
2019-03-04T12:50:29.631Z,2.47
2019-03-04T12:52:58.730Z,2.43
2019-03-04T12:55:27.618Z,2.53
2019-03-04T12:57:56.504Z,2.60
2019-03-04T13:00:29.156Z,2.80
2019-03-04T13:02:58.397Z,3.50
2019-03-04T13:05:28.783Z,3.27
2019-03-04T13:07:58.892Z,3.30
2019-03-04T13:10:28.319Z,3.77
2019-03-04T13:12:57.256Z,3.57
2019-03-04T13:15:27.599Z,3.73
2019-03-04T13:17:56.444Z,4.33
2019-03-04T13:20:26.148Z,3.50
2019-03-04T13:22:55.101Z,3.70
2019-03-04T13:25:24.291Z,4.00
2019-03-04T13:27:53.205Z,3.20
2019-03-04T13:30:25.635Z,3.17
2019-03-04T13:32:54.639Z,3.37
2019-03-04T13:35:27.902Z,3.50
2019-03-04T13:37:58.415Z,3.13
2019-03-04T13:40:28.153Z,3.30
2019-03-04T13:42:57.048Z,3.90
2019-03-04T13:45:26.811Z,3.23
2019-03-04T13:47:55.774Z,3.33
2019-03-04T13:50:27.959Z,3.30
2019-03-04T13:52:57.153Z,3.20
2019-03-04T13:55:26.139Z,3.67
2019-03-04T13:57:55.099Z,2.93
2019-03-04T14:00:24.899Z,2.50
2019-03-04T14:02:53.699Z,3.42
2019-03-04T14:05:22.692Z,2.97
2019-03-04T14:07:51.497Z,3.40
2019-03-04T14:10:24.774Z,2.80
2019-03-04T14:12:53.529Z,2.27
2019-03-04T14:15:26.587Z,2.60
2019-03-04T14:18:00.957Z,1.93
2019-03-04T14:20:32.781Z,2.00
2019-03-04T14:23:01.652Z,1.90
2019-03-04T14:25:30.872Z,2.00
2019-03-04T14:28:00.154Z,1.73
2019-03-04T14:30:29.039Z,1.70
2019-03-04T14:32:58.127Z,1.90
2019-03-04T14:35:28.552Z,2.00
2019-03-04T14:37:57.349Z,1.63
2019-03-04T14:40:26.350Z,1.47
2019-03-04T14:42:55.413Z,2.53
2019-03-04T14:45:24.820Z,1.83
2019-03-04T14:47:53.902Z,2.00
2019-03-04T14:50:22.788Z,1.30
2019-03-04T14:52:51.712Z,1.60
2019-03-04T14:55:24.053Z,1.73
2019-03-04T14:57:52.848Z,1.57
2019-03-04T15:00:23.411Z,1.97
2019-03-04T15:02:52.679Z,1.83
2019-03-04T15:05:21.513Z,2.23
2019-03-04T15:07:50.317Z,1.60
2019-03-04T15:10:19.217Z,1.60
2019-03-04T15:12:48.656Z,1.40
2019-03-04T15:15:18.474Z,1.50
2019-03-04T15:17:47.212Z,1.60
2019-03-04T15:20:17.611Z,1.87
2019-03-04T15:22:46.427Z,2.13
2019-03-04T15:25:33.174Z,1.80
2019-03-04T15:28:09.394Z,1.57
2019-03-04T15:30:38.392Z,1.83
2019-03-04T15:33:17.186Z,1.87
2019-03-04T15:35:37.824Z,1.70
2019-03-04T15:38:06.673Z,1.57
2019-03-04T15:40:35.475Z,2.93
2019-03-04T15:43:04.339Z,1.70
2019-03-04T15:45:33.710Z,1.67
2019-03-04T15:48:02.797Z,2.37
2019-03-04T15:50:31.655Z,1.80
2019-03-04T15:53:00.484Z,1.50
2019-03-04T15:55:29.287Z,1.50
2019-03-04T15:57:58.192Z,1.50
2019-03-04T16:00:27.006Z,1.50
2019-03-04T16:02:55.841Z,1.20
2019-03-04T16:05:24.682Z,1.40
2019-03-04T16:07:53.611Z,1.80
2019-03-04T16:10:26.655Z,1.60
2019-03-04T16:12:55.617Z,1.73
2019-03-04T16:15:24.423Z,1.30
2019-03-04T16:17:53.255Z,1.27
2019-03-04T16:20:22.337Z,1.37
2019-03-04T16:22:51.573Z,1.40
2019-03-04T16:25:20.307Z,1.77
2019-03-04T16:27:49.151Z,1.30
2019-03-04T16:30:19.158Z,1.30
2019-03-04T16:32:47.885Z,1.70
2019-03-04T16:35:16.813Z,1.20
2019-03-04T16:37:45.647Z,1.30
2019-03-04T16:40:16.352Z,1.40
2019-03-04T16:42:45.331Z,1.30
2019-03-04T16:45:15.373Z,1.20
2019-03-04T16:47:44.269Z,1.50
2019-03-04T16:53:39.202Z,2.10
2019-03-04T16:56:08.453Z,1.67
2019-03-04T16:58:37.475Z,1.50
2019-03-04T17:01:06.810Z,1.60
2019-03-04T17:03:35.742Z,2.10
2019-03-04T17:06:04.644Z,2.40
2019-03-04T17:08:33.450Z,2.10
2019-03-04T17:11:02.229Z,1.60
2019-03-04T17:13:30.951Z,1.90
2019-03-04T17:15:59.750Z,1.57
2019-03-04T17:18:28.570Z,2.13
2019-03-04T17:20:57.427Z,2.30
2019-03-04T17:23:26.349Z,1.80
2019-03-04T17:25:55.187Z,1.53
2019-03-04T17:28:24.001Z,1.50
2019-03-04T17:30:52.871Z,1.60
2019-03-04T17:33:21.709Z,1.77
2019-03-04T17:35:50.570Z,1.60
2019-03-04T17:38:19.404Z,1.80
2019-03-04T17:40:48.321Z,1.93
2019-03-04T17:43:17.182Z,1.73
2019-03-04T17:45:46.140Z,1.87
2019-03-04T17:48:15.140Z,1.60
2019-03-04T17:50:44.933Z,1.30
2019-03-04T17:53:14.361Z,1.80
2019-03-04T17:55:43.711Z,1.70
2019-03-04T17:58:13.380Z,1.50
2019-03-04T18:00:42.245Z,1.47
2019-03-04T18:03:11.266Z,2.70
2019-03-04T18:05:40.086Z,2.00
2019-03-04T18:08:09.797Z,1.67
2019-03-04T18:10:38.590Z,1.77
2019-03-04T18:13:08.931Z,2.40
2019-03-04T18:15:41.404Z,1.77
2019-03-04T18:18:10.343Z,2.00
2019-03-04T18:20:39.079Z,1.57
2019-03-04T18:23:07.954Z,1.80
2019-03-04T18:25:54.718Z,1.83
2019-03-04T18:28:30.703Z,1.80
2019-03-04T18:31:13.195Z,2.17
2019-03-04T18:33:43.575Z,1.63
2019-03-04T18:36:22.679Z,1.80
2019-03-04T18:38:59.117Z,2.00
2019-03-04T18:41:44.651Z,1.80
2019-03-04T18:44:26.959Z,2.63
2019-03-04T18:47:12.154Z,1.63
2019-03-04T18:49:42.477Z,1.93
2019-03-04T18:52:11.360Z,2.07
2019-03-04T18:54:40.188Z,2.27
2019-03-04T18:57:08.988Z,2.20
2019-03-04T18:59:37.781Z,1.60
2019-03-04T19:02:06.584Z,1.90
2019-03-04T19:04:35.491Z,1.77
2019-03-04T19:07:04.386Z,1.93
2019-03-04T19:09:33.240Z,1.93
2019-03-04T19:12:02.062Z,2.00
2019-03-04T19:14:30.917Z,2.00
2019-03-04T19:16:59.727Z,1.80
2019-03-04T19:19:28.508Z,1.60
2019-03-04T19:21:59.303Z,1.80
2019-03-04T19:24:28.125Z,2.50
2019-03-04T19:26:56.939Z,2.33
2019-03-04T19:29:26.027Z,2.43
2019-03-04T19:31:56.026Z,3.20
2019-03-04T19:34:25.396Z,2.20
2019-03-04T19:36:54.777Z,1.90
2019-03-04T19:39:24.303Z,2.17
2019-03-04T19:41:53.770Z,2.03
2019-03-04T19:44:23.265Z,2.90
2019-03-04T19:46:52.661Z,2.30
2019-03-04T19:49:22.118Z,2.67
2019-03-04T19:51:51.544Z,2.20
2019-03-04T19:54:20.923Z,2.57
2019-03-04T19:56:50.398Z,2.10
2019-03-04T19:59:19.700Z,2.40
2019-03-04T20:01:49.014Z,2.63
2019-03-04T20:04:18.300Z,2.43
2019-03-04T20:06:47.612Z,2.80
2019-03-04T20:09:16.978Z,3.20
2019-03-04T20:11:46.385Z,2.30
2019-03-04T20:14:15.851Z,2.47
2019-03-04T20:16:45.227Z,2.33
2019-03-04T20:19:14.526Z,2.80
2019-03-04T20:21:43.840Z,2.57
2019-03-04T20:24:13.261Z,2.07
2019-03-04T20:26:42.785Z,2.83
2019-03-04T20:29:12.248Z,2.20
2019-03-04T20:31:41.569Z,2.03
2019-03-04T20:34:10.978Z,2.13
2019-03-04T20:36:40.357Z,2.70
2019-03-04T20:39:09.797Z,2.63
2019-03-04T20:41:39.394Z,2.63
2019-03-04T20:44:08.770Z,2.17
2019-03-04T20:46:38.105Z,2.87
2019-03-04T20:49:07.462Z,2.30
2019-03-04T20:51:36.812Z,2.60
2019-03-04T20:54:06.258Z,2.70
2019-03-04T20:56:35.671Z,2.47
2019-03-04T20:59:05.227Z,1.83
2019-03-04T21:01:34.655Z,1.10
2019-03-04T21:04:06.081Z,1.13
2019-03-04T21:06:35.383Z,1.23
2019-03-04T21:09:05.515Z,0.80
2019-03-04T21:11:35.136Z,0.83
2019-03-04T21:14:04.607Z,0.97
2019-03-04T21:16:34.020Z,1.10
2019-03-04T21:19:03.369Z,1.07
2019-03-04T21:21:32.698Z,1.20
2019-03-04T21:24:02.067Z,1.10
2019-03-04T21:26:31.608Z,1.00
2019-03-04T21:29:03.961Z,1.00
2019-03-04T21:31:36.697Z,0.87
2019-03-04T21:34:11.030Z,1.67
2019-03-04T21:37:03.952Z,1.40
2019-03-04T21:39:48.546Z,1.23
2019-03-04T21:42:26.759Z,1.63
2019-03-04T21:45:01.717Z,1.33
2019-03-04T21:47:44.389Z,1.70
2019-03-04T21:50:19.816Z,2.10
2019-03-04T21:53:03.989Z,1.87
2019-03-04T21:55:36.674Z,2.07
2019-03-04T21:58:06.271Z,1.87
2019-03-04T22:00:35.779Z,1.97
2019-03-04T22:03:07.984Z,2.00
2019-03-04T22:05:37.851Z,2.50
2019-03-04T22:08:07.228Z,1.70
2019-03-04T22:10:36.593Z,2.50
2019-03-04T22:13:06.294Z,2.10
2019-03-04T22:15:35.654Z,1.90
2019-03-04T22:18:05.771Z,2.63
2019-03-04T22:20:35.314Z,2.27
2019-03-04T22:23:04.764Z,2.17
2019-03-04T22:25:34.149Z,2.80
2019-03-04T22:28:03.555Z,3.40
2019-03-04T22:30:32.987Z,3.90
2019-03-04T22:33:02.407Z,2.50
2019-03-04T22:35:31.837Z,2.50
2019-03-04T22:38:01.129Z,3.07
2019-03-04T22:40:30.515Z,2.20
2019-03-04T22:42:59.740Z,2.40
2019-03-04T22:45:28.921Z,2.17
2019-03-04T22:47:58.200Z,2.80
2019-03-04T22:50:27.472Z,2.47
2019-03-04T22:52:56.847Z,3.80
2019-03-04T22:55:29.015Z,2.47
2019-03-04T22:57:58.226Z,2.60
2019-03-04T23:00:42.355Z,2.70
2019-03-04T23:03:11.697Z,3.37
2019-03-04T23:05:41.227Z,2.97
2019-03-04T23:08:10.512Z,2.50
2019-03-04T23:10:44.631Z,3.40
2019-03-04T23:13:19.733Z,2.70
2019-03-04T23:15:50.856Z,2.27
2019-03-04T23:18:20.213Z,2.60
2019-03-04T23:20:49.550Z,2.80
2019-03-04T23:23:18.750Z,2.37
2019-03-04T23:25:47.950Z,2.40
2019-03-04T23:28:17.241Z,2.50
2019-03-04T23:30:46.505Z,2.87
2019-03-04T23:33:15.860Z,2.70
2019-03-04T23:35:45.192Z,2.20
2019-03-04T23:38:14.483Z,3.03
2019-03-04T23:40:43.749Z,2.93
2019-03-04T23:43:13.006Z,2.50
2019-03-04T23:45:42.237Z,3.40
2019-03-04T23:48:11.493Z,2.60
2019-03-04T23:50:40.929Z,2.50
2019-03-04T23:53:10.258Z,2.63
2019-03-04T23:55:39.553Z,2.83
2019-03-04T23:58:08.826Z,3.00
